createdAt,value
2022-10-22T00:03:22.593Z,7.00
2022-10-22T00:05:49.166Z,7.68
2022-10-22T00:10:42.482Z,8.52
2022-10-22T00:13:09.017Z,7.45
2022-10-22T00:18:01.975Z,7.32
2022-10-22T00:24:03.390Z,7.53
2022-10-22T00:26:29.928Z,7.95
2022-10-22T00:31:22.885Z,7.53
2022-10-22T00:36:16.664Z,8.20
2022-10-22T00:38:43.396Z,7.65
2022-10-22T00:41:09.939Z,7.75
2022-10-22T00:46:19.613Z,7.40
2022-10-22T00:51:13.816Z,8.32
2022-10-22T00:53:45.544Z,8.50
2022-10-22T00:56:12.399Z,8.70
2022-10-22T00:58:45.274Z,8.43
2022-10-22T01:01:16.760Z,9.63
2022-10-22T01:03:43.572Z,8.57
2022-10-22T01:06:14.965Z,9.70
2022-10-22T01:09:03.307Z,9.30
2022-10-22T01:11:34.928Z,9.05
2022-10-22T01:14:01.396Z,9.85
2022-10-22T01:16:43.821Z,9.45
2022-10-22T01:19:19.101Z,8.90
2022-10-22T01:21:51.940Z,9.10
2022-10-22T01:24:32.245Z,8.32
2022-10-22T01:27:20.110Z,8.57
2022-10-22T01:29:59.999Z,8.23
2022-10-22T01:32:29.381Z,8.35
2022-10-22T01:35:01.617Z,7.95
2022-10-22T01:37:34.905Z,8.57
2022-10-22T01:40:02.328Z,7.63
2022-10-22T01:42:29.076Z,8.43
2022-10-22T01:44:55.643Z,6.82
2022-10-22T01:50:30.773Z,8.65
2022-10-22T01:53:03.387Z,9.38
2022-10-22T01:55:54.989Z,8.20
2022-10-22T01:58:58.548Z,8.52
2022-10-22T02:01:38.703Z,7.45
2022-10-22T02:04:40.107Z,6.85
2022-10-22T02:07:08.900Z,8.48
2022-10-22T02:09:36.518Z,10.93
2022-10-22T02:12:06.619Z,9.93
2022-10-22T02:14:36.362Z,7.85
2022-10-22T02:17:04.070Z,8.63
2022-10-22T02:19:52.990Z,8.55
2022-10-22T02:22:20.086Z,8.18
2022-10-22T02:24:48.349Z,8.65
2022-10-22T02:27:29.627Z,7.55
2022-10-22T02:30:00.183Z,7.68
2022-10-22T02:32:34.327Z,7.63
2022-10-22T02:35:03.133Z,7.57
2022-10-22T02:37:30.287Z,7.47
2022-10-22T02:39:56.870Z,7.07
2022-10-22T02:44:52.082Z,8.30
2022-10-22T02:47:18.657Z,6.45
2022-10-22T02:52:11.613Z,7.07
2022-10-22T02:57:04.524Z,6.43
2022-10-22T03:01:57.444Z,6.25
2022-10-22T03:06:50.526Z,6.80
2022-10-22T03:09:20.181Z,6.22
2022-10-22T03:11:49.304Z,5.50
2022-10-22T03:16:42.351Z,6.22
2022-10-22T03:21:45.826Z,5.07
2022-10-22T03:24:17.657Z,6.10
2022-10-22T03:26:48.584Z,5.70
2022-10-22T03:29:15.943Z,4.97
2022-10-22T03:31:42.865Z,4.65
2022-10-22T03:34:11.855Z,4.80
2022-10-22T03:36:38.856Z,4.20
2022-10-22T03:39:06.241Z,4.60
2022-10-22T03:41:33.698Z,4.32
2022-10-22T03:44:01.977Z,5.07
2022-10-22T03:46:28.559Z,5.10
2022-10-22T03:51:21.505Z,4.68
2022-10-22T03:56:14.494Z,4.47
2022-10-22T04:01:10.363Z,4.00
2022-10-22T04:03:36.972Z,4.50
2022-10-22T04:08:31.821Z,3.75
2022-10-22T04:10:58.747Z,4.35
2022-10-22T04:13:25.592Z,4.57
2022-10-22T04:15:52.778Z,3.83
2022-10-22T04:18:20.178Z,3.90
2022-10-22T04:20:47.014Z,5.18
2022-10-22T04:23:13.807Z,5.22
2022-10-22T04:25:40.706Z,4.55
2022-10-22T04:28:08.275Z,4.65
2022-10-22T04:30:36.588Z,5.10
2022-10-22T04:33:03.607Z,4.43
2022-10-22T04:35:30.148Z,5.88
2022-10-22T04:40:23.118Z,5.68
2022-10-22T04:42:49.652Z,5.68
2022-10-22T04:47:42.766Z,6.57
2022-10-22T04:50:09.642Z,5.78
2022-10-22T04:52:36.163Z,7.78
2022-10-22T04:57:32.158Z,6.05
2022-10-22T04:59:58.679Z,6.68
2022-10-22T05:04:51.757Z,5.38
2022-10-22T05:09:44.999Z,5.72
2022-10-22T05:12:11.526Z,5.47
2022-10-22T05:17:11.349Z,4.88
2022-10-22T05:19:38.274Z,3.90
2022-10-22T05:22:05.151Z,4.70
2022-10-22T05:24:33.525Z,4.05
2022-10-22T05:27:00.642Z,3.90
2022-10-22T05:29:27.785Z,3.22
2022-10-22T05:31:54.334Z,3.38
2022-10-22T05:36:47.336Z,3.03
2022-10-22T05:41:40.464Z,3.15
2022-10-22T05:44:07.097Z,2.67
2022-10-22T05:46:36.005Z,2.60
2022-10-22T05:49:04.912Z,2.53
2022-10-22T05:51:33.822Z,2.53
2022-10-22T05:54:06.160Z,2.47
2022-10-22T05:56:33.587Z,2.65
2022-10-22T06:01:35.337Z,2.72
2022-10-22T06:04:04.700Z,3.40
2022-10-22T06:06:40.476Z,3.70
2022-10-22T06:09:14.684Z,3.67
2022-10-22T06:11:41.234Z,3.05
2022-10-22T06:16:34.202Z,3.15
2022-10-22T06:21:29.808Z,3.42
2022-10-22T06:23:57.671Z,3.50
2022-10-22T06:26:24.466Z,3.92
2022-10-22T06:28:51.015Z,3.25
2022-10-22T06:33:44.086Z,4.00
2022-10-22T06:36:13.475Z,4.00
2022-10-22T06:38:41.009Z,3.47
2022-10-22T06:41:13.737Z,3.67
2022-10-22T06:43:41.395Z,3.80
2022-10-22T06:46:14.821Z,4.15
2022-10-22T06:48:49.295Z,4.00
2022-10-22T06:51:15.926Z,3.90
2022-10-22T06:56:13.119Z,3.65
2022-10-22T06:58:40.202Z,3.72
2022-10-22T07:01:12.418Z,3.92
2022-10-22T07:03:40.441Z,4.28
2022-10-22T07:06:12.558Z,4.10
2022-10-22T07:08:39.964Z,3.63
2022-10-22T07:11:15.907Z,4.20
2022-10-22T07:13:42.958Z,3.78
2022-10-22T07:16:10.997Z,4.38
2022-10-22T07:18:39.345Z,3.92
2022-10-22T07:21:07.224Z,2.95
2022-10-22T07:23:33.854Z,3.50
2022-10-22T07:28:30.200Z,5.00
2022-10-22T07:30:56.723Z,3.90
2022-10-22T07:35:49.676Z,3.20
2022-10-22T07:40:42.615Z,3.55
2022-10-22T07:45:35.597Z,2.70
2022-10-22T07:50:28.795Z,2.92
2022-10-22T07:52:57.453Z,3.13
2022-10-22T07:55:24.949Z,2.72
2022-10-22T08:00:20.497Z,2.63
2022-10-22T08:02:49.663Z,2.42
2022-10-22T08:07:43.194Z,2.58
2022-10-22T08:10:10.791Z,2.35
2022-10-22T08:12:38.453Z,2.13
2022-10-22T08:15:05.968Z,2.45
2022-10-22T08:17:32.616Z,2.53
2022-10-22T08:19:59.150Z,2.35
2022-10-22T08:24:53.466Z,2.60
2022-10-22T08:27:20.053Z,3.00
2022-10-22T08:32:13.581Z,3.35
2022-10-22T08:37:08.502Z,2.47
2022-10-22T08:39:35.571Z,3.00
2022-10-22T08:45:19.943Z,3.00
2022-10-22T08:48:05.202Z,3.22
2022-10-22T08:50:45.631Z,2.85
2022-10-22T08:53:41.549Z,3.20
2022-10-22T08:56:08.089Z,3.10
2022-10-22T09:01:23.247Z,3.88
2022-10-22T09:03:58.681Z,3.45
2022-10-22T09:06:28.292Z,3.33
2022-10-22T09:08:58.238Z,4.00
2022-10-22T09:11:27.362Z,2.55
2022-10-22T09:13:55.503Z,2.55
2022-10-22T09:16:31.057Z,2.15
2022-10-22T09:19:16.047Z,2.45
2022-10-22T09:22:12.850Z,2.22
2022-10-22T09:24:46.595Z,2.50
2022-10-22T09:27:23.602Z,2.58
2022-10-22T09:29:50.176Z,2.80
2022-10-22T09:34:49.100Z,2.30
2022-10-22T09:37:24.694Z,1.92
2022-10-22T09:39:52.454Z,2.03
2022-10-22T09:42:20.485Z,2.17
2022-10-22T09:44:59.743Z,2.00
2022-10-22T09:48:00.522Z,2.10
2022-10-22T09:50:29.366Z,1.98
2022-10-22T09:53:11.905Z,2.28
2022-10-22T09:55:40.400Z,2.08
2022-10-22T09:58:11.469Z,2.30
2022-10-22T10:00:44.992Z,2.03
2022-10-22T10:03:18.501Z,2.30
2022-10-22T10:05:48.580Z,3.22
2022-10-22T10:08:17.491Z,3.00
2022-10-22T10:10:59.777Z,5.30
2022-10-22T10:13:38.638Z,7.68
2022-10-22T10:32:30.170Z,2.63
2022-10-22T10:35:15.174Z,2.97
2022-10-22T10:38:18.965Z,2.40
2022-10-22T10:40:55.642Z,1.95
2022-10-22T10:43:45.046Z,1.60
2022-10-22T10:49:09.562Z,1.58
2022-10-22T10:52:17.390Z,2.28
2022-10-22T10:55:02.759Z,1.67
2022-10-22T10:57:46.748Z,1.50
2022-10-22T11:00:20.034Z,1.77
2022-10-22T11:03:07.788Z,1.60
2022-10-22T11:05:39.518Z,1.45
2022-10-22T11:08:43.394Z,1.67
2022-10-22T11:11:26.621Z,2.30
2022-10-22T11:13:57.825Z,2.35
2022-10-22T11:16:37.011Z,1.80
2022-10-22T11:19:53.731Z,1.63
2022-10-22T11:22:28.782Z,1.10
2022-10-22T11:28:43.912Z,1.60
2022-10-22T11:31:14.716Z,1.40
2022-10-22T11:34:33.338Z,1.80
2022-10-22T11:37:06.332Z,1.40
2022-10-22T11:39:48.999Z,2.50
2022-10-22T11:42:31.838Z,3.92
2022-10-22T11:45:06.291Z,2.88
2022-10-22T11:48:07.497Z,2.20
2022-10-22T11:50:56.678Z,3.25
2022-10-22T11:53:26.137Z,2.38
2022-10-22T11:55:55.499Z,3.17
2022-10-22T11:58:28.290Z,3.30
2022-10-22T12:01:17.600Z,2.58
2022-10-22T12:04:21.900Z,2.08
2022-10-22T12:07:02.005Z,2.42
2022-10-22T12:09:32.754Z,3.13
2022-10-22T12:12:15.397Z,2.20
2022-10-22T12:14:59.361Z,1.55
2022-10-22T12:17:28.577Z,1.73
2022-10-22T12:20:25.254Z,1.40
2022-10-22T12:22:53.050Z,1.58
2022-10-22T12:25:23.749Z,1.60
2022-10-22T12:27:53.450Z,1.52
2022-10-22T12:30:23.652Z,1.85
2022-10-22T12:33:00.453Z,2.03
2022-10-22T12:35:30.210Z,2.53
2022-10-22T12:38:00.397Z,1.40
2022-10-22T12:40:33.721Z,1.67
2022-10-22T12:43:12.618Z,2.33
2022-10-22T12:45:40.945Z,3.05
2022-10-22T12:48:34.377Z,2.22
2022-10-22T12:51:03.983Z,2.00
2022-10-22T12:53:37.716Z,1.73
2022-10-22T12:56:06.827Z,1.80
2022-10-22T12:58:41.053Z,1.80
2022-10-22T13:01:12.187Z,1.23
2022-10-22T13:04:16.916Z,1.48
2022-10-22T13:06:49.636Z,1.40
2022-10-22T13:09:25.159Z,1.40
2022-10-22T13:12:04.658Z,1.55
2022-10-22T13:19:54.716Z,1.42
2022-10-22T13:22:24.244Z,1.98
2022-10-22T13:24:51.424Z,5.60
2022-10-22T13:27:18.252Z,11.18
2022-10-22T13:29:45.243Z,6.75
2022-10-22T13:32:41.738Z,4.10
2022-10-22T13:35:15.927Z,5.35
2022-10-22T13:37:42.678Z,5.57
2022-10-22T13:40:14.044Z,8.27
2022-10-22T13:42:40.883Z,7.55
2022-10-22T13:45:07.898Z,3.92
2022-10-22T13:47:34.644Z,1.70
2022-10-22T13:50:12.650Z,2.90
2022-10-22T13:52:43.416Z,3.20
2022-10-22T13:55:19.823Z,2.03
2022-10-22T13:57:47.251Z,1.77
2022-10-22T14:00:23.796Z,1.70
2022-10-22T14:02:54.011Z,2.00
2022-10-22T14:05:21.291Z,2.08
2022-10-22T14:07:48.714Z,2.03
2022-10-22T14:10:20.694Z,2.60
2022-10-22T14:12:52.396Z,2.90
2022-10-22T14:15:24.066Z,2.72
2022-10-22T14:17:56.231Z,3.33
2022-10-22T14:20:26.842Z,3.13
2022-10-22T14:22:53.639Z,1.77
2022-10-22T14:25:22.819Z,1.90
2022-10-22T14:27:49.912Z,1.75
2022-10-22T14:30:19.334Z,2.28
2022-10-22T14:32:46.376Z,1.95
2022-10-22T14:35:15.277Z,2.92
2022-10-22T14:37:42.156Z,2.20
2022-10-22T14:40:12.449Z,2.22
2022-10-22T14:42:42.356Z,2.20
2022-10-22T14:45:21.813Z,2.85
2022-10-22T14:47:49.983Z,2.78
2022-10-22T14:50:17.960Z,2.60
2022-10-22T14:52:44.796Z,2.40
2022-10-22T14:55:12.966Z,1.73
2022-10-22T14:57:40.382Z,1.80
2022-10-22T15:00:10.111Z,1.83
2022-10-22T15:02:36.890Z,1.50
2022-10-22T15:05:04.045Z,1.77
2022-10-22T15:07:30.611Z,3.13
2022-10-22T15:12:23.531Z,2.85
2022-10-22T15:17:17.944Z,2.83
2022-10-22T15:19:44.810Z,3.28
2022-10-22T15:22:12.627Z,2.60
2022-10-22T15:24:39.887Z,2.28
2022-10-22T15:27:06.771Z,2.08
2022-10-22T15:29:33.466Z,1.98
2022-10-22T15:32:03.138Z,2.20
2022-10-22T15:34:32.545Z,2.42
2022-10-22T15:37:01.047Z,2.10
2022-10-22T15:39:28.074Z,2.00
2022-10-22T15:41:54.996Z,2.15
2022-10-22T15:44:23.698Z,2.33
2022-10-22T15:49:27.655Z,2.08
2022-10-22T15:51:54.814Z,2.50
2022-10-22T15:54:24.627Z,2.03
2022-10-22T15:56:51.321Z,1.85
2022-10-22T15:59:18.395Z,1.80
2022-10-22T16:01:45.139Z,2.00
2022-10-22T16:04:11.955Z,1.73
2022-10-22T16:06:41.840Z,1.90
2022-10-22T16:09:10.911Z,1.92
2022-10-22T16:11:38.644Z,2.40
2022-10-22T16:14:05.864Z,1.95
2022-10-22T16:16:34.628Z,2.53
2022-10-22T16:19:02.646Z,2.78
2022-10-22T16:21:29.250Z,2.35
2022-10-22T16:26:22.205Z,2.38
2022-10-22T16:31:17.906Z,2.75
2022-10-22T16:33:47.905Z,3.08
2022-10-22T16:36:18.874Z,3.38
2022-10-22T16:38:46.798Z,3.70
2022-10-22T16:41:16.270Z,3.70
2022-10-22T16:43:44.571Z,4.22
2022-10-22T16:46:11.842Z,3.80
2022-10-22T16:48:40.600Z,3.97
2022-10-22T16:51:09.231Z,3.30
2022-10-22T16:53:36.317Z,3.30
2022-10-22T16:56:03.385Z,3.80
2022-10-22T16:58:30.316Z,4.05
2022-10-22T17:00:56.869Z,3.70
2022-10-22T17:05:54.251Z,3.83
2022-10-22T17:10:47.344Z,3.72
2022-10-22T17:13:13.827Z,4.55
2022-10-22T17:15:41.053Z,4.90
2022-10-22T17:18:07.575Z,5.10
2022-10-22T17:23:00.597Z,4.47
2022-10-22T17:25:42.984Z,4.88
2022-10-22T17:28:13.153Z,5.40
2022-10-22T17:30:41.025Z,4.97
2022-10-22T17:33:08.285Z,5.25
2022-10-22T17:35:39.069Z,5.35
2022-10-22T17:38:06.476Z,6.05
2022-10-22T17:40:35.232Z,6.55
2022-10-22T17:43:02.068Z,6.35
2022-10-22T17:45:28.719Z,6.60
2022-10-22T17:50:23.710Z,6.95
2022-10-22T17:55:17.194Z,7.50
2022-10-22T17:57:43.725Z,6.63
2022-10-22T18:02:37.637Z,5.73
2022-10-22T18:05:04.374Z,5.28
2022-10-22T18:07:31.129Z,6.10
2022-10-22T18:09:57.667Z,5.60
2022-10-22T18:14:50.605Z,6.22
2022-10-22T18:19:43.547Z,6.05
2022-10-22T18:22:10.049Z,5.88
2022-10-22T18:27:03.984Z,3.95
2022-10-22T18:29:30.622Z,4.00
2022-10-22T18:31:57.169Z,4.38
2022-10-22T18:36:50.755Z,6.03
2022-10-22T18:41:44.127Z,9.23
2022-10-22T18:44:12.969Z,10.50
2022-10-22T18:46:40.176Z,9.63
2022-10-22T18:49:07.308Z,11.18
2022-10-22T18:51:34.838Z,10.27
2022-10-22T18:54:21.644Z,11.13
2022-10-22T18:56:49.282Z,11.25
2022-10-22T19:01:44.614Z,11.98
2022-10-22T19:04:12.377Z,12.88
2022-10-22T19:06:42.979Z,13.35
2022-10-22T19:09:12.208Z,13.25
2022-10-22T19:11:38.868Z,13.73
2022-10-22T19:16:32.002Z,11.13
2022-10-22T19:19:05.483Z,10.27
2022-10-22T19:21:32.932Z,9.68
2022-10-22T19:24:01.294Z,8.10
2022-10-22T19:26:30.175Z,7.93
2022-10-22T19:28:57.768Z,7.85
2022-10-22T19:31:26.655Z,7.95
2022-10-22T19:33:56.509Z,8.18
2022-10-22T19:36:25.228Z,8.60
2022-10-22T19:38:51.990Z,7.85
2022-10-22T19:41:21.176Z,6.32
2022-10-22T19:43:50.991Z,5.57
2022-10-22T19:46:18.352Z,5.60
2022-10-22T19:51:19.778Z,4.95
2022-10-22T19:53:47.091Z,4.35
2022-10-22T19:56:20.460Z,4.70
2022-10-22T19:58:47.590Z,4.63
2022-10-22T20:01:15.880Z,5.75
2022-10-22T20:03:43.026Z,6.35
2022-10-22T20:06:11.493Z,6.28
2022-10-22T20:08:38.910Z,7.70
2022-10-22T20:11:17.172Z,7.43
2022-10-22T20:13:46.618Z,7.95
2022-10-22T20:16:18.000Z,8.35
2022-10-22T20:18:45.108Z,9.05
2022-10-22T20:21:16.307Z,9.00
2022-10-22T20:23:43.221Z,9.45
2022-10-22T20:26:09.872Z,9.43
2022-10-22T20:28:37.586Z,8.63
2022-10-22T20:31:12.856Z,9.27
2022-10-22T20:33:39.370Z,9.02
2022-10-22T20:41:21.048Z,8.07
2022-10-22T20:43:48.855Z,7.40
2022-10-22T20:46:27.941Z,7.07
2022-10-22T20:49:00.170Z,7.20
2022-10-22T20:51:28.219Z,8.00
2022-10-22T20:53:54.737Z,7.90
2022-10-22T20:58:49.070Z,8.55
2022-10-22T21:01:24.126Z,10.82
2022-10-22T21:03:52.711Z,10.65
2022-10-22T21:06:22.906Z,10.82
2022-10-22T21:08:50.409Z,10.10
2022-10-22T21:11:17.572Z,9.20
2022-10-22T21:13:44.291Z,8.55
2022-10-22T21:16:12.656Z,8.95
2022-10-22T21:18:39.528Z,13.48
2022-10-22T21:21:07.828Z,6.65
2022-10-22T21:23:35.755Z,6.65
2022-10-22T21:26:02.987Z,7.03
2022-10-22T21:30:57.234Z,6.35
2022-10-22T21:35:55.007Z,5.38
2022-10-22T21:38:23.206Z,13.38
2022-10-22T21:40:50.487Z,4.43
2022-10-22T21:43:17.678Z,5.00
2022-10-22T21:45:44.681Z,10.85
2022-10-22T21:48:15.874Z,4.97
2022-10-22T21:50:43.931Z,5.68
2022-10-22T21:53:12.048Z,5.43
2022-10-22T21:55:41.511Z,5.55
2022-10-22T21:58:08.706Z,5.07
2022-10-22T22:17:21.380Z,9.57
2022-10-22T22:19:47.947Z,9.48
2022-10-22T22:24:40.967Z,9.07
2022-10-22T22:29:34.744Z,9.07
2022-10-22T22:32:01.387Z,9.05
2022-10-22T22:36:54.453Z,8.50
2022-10-22T22:39:23.705Z,9.93
2022-10-22T22:41:50.879Z,8.70
2022-10-22T22:44:17.534Z,8.40
2022-10-22T22:46:44.073Z,7.90
2022-10-22T22:51:37.076Z,7.45
2022-10-22T22:56:32.705Z,7.25
2022-10-22T22:58:59.407Z,6.90
2022-10-22T23:01:37.786Z,6.53
2022-10-22T23:04:13.640Z,7.05
2022-10-22T23:06:40.327Z,6.28
2022-10-22T23:09:09.504Z,4.95
2022-10-22T23:11:36.446Z,5.55
2022-10-22T23:14:05.320Z,5.05
2022-10-22T23:16:34.364Z,4.93
2022-10-22T23:19:01.524Z,4.72
2022-10-22T23:21:30.940Z,4.95
2022-10-22T23:24:00.980Z,4.82
2022-10-22T23:26:32.340Z,4.82
2022-10-22T23:29:04.261Z,4.88
2022-10-22T23:31:31.170Z,5.90
2022-10-22T23:33:58.538Z,6.13
2022-10-22T23:36:25.793Z,5.82
2022-10-22T23:38:52.528Z,4.95
2022-10-22T23:41:19.028Z,5.45
2022-10-22T23:43:45.617Z,5.45
2022-10-22T23:48:40.236Z,5.15
2022-10-22T23:51:11.810Z,5.15
2022-10-22T23:53:38.567Z,5.00
2022-10-22T23:56:10.710Z,5.85
2022-10-22T23:58:39.211Z,7.13
